createdAt,value
2022-08-26T00:00:10.320Z,70.57
2022-08-26T00:01:10.226Z,70.59
2022-08-26T00:02:10.249Z,70.91
2022-08-26T00:03:10.432Z,71.01
2022-08-26T00:04:10.224Z,70.88
2022-08-26T00:05:10.203Z,70.91
2022-08-26T00:06:10.177Z,70.90
2022-08-26T00:07:10.167Z,71.06
2022-08-26T00:08:10.162Z,71.15
2022-08-26T00:09:10.298Z,71.27
2022-08-26T00:10:10.149Z,71.28
2022-08-26T00:11:10.132Z,71.15
2022-08-26T00:12:12.464Z,71.16
2022-08-26T00:13:10.098Z,71.35
2022-08-26T00:14:10.424Z,71.35
2022-08-26T00:15:10.084Z,71.27
2022-08-26T00:16:20.987Z,71.35
2022-08-26T00:17:10.063Z,71.40
2022-08-26T00:18:16.823Z,71.74
2022-08-26T00:19:11.259Z,71.64
2022-08-26T00:20:10.028Z,71.66
2022-08-26T00:21:10.020Z,71.75
2022-08-26T00:22:10.006Z,71.76
2022-08-26T00:23:09.988Z,71.83
2022-08-26T00:24:09.984Z,71.70
2022-08-26T00:25:10.420Z,71.68
2022-08-26T00:26:11.001Z,71.82
2022-08-26T00:27:09.978Z,71.73
2022-08-26T00:28:10.986Z,71.85
2022-08-26T00:29:09.930Z,71.85
2022-08-26T00:30:09.927Z,71.85
2022-08-26T00:31:11.050Z,71.83
2022-08-26T00:32:09.937Z,71.96
2022-08-26T00:33:10.176Z,71.80
2022-08-26T00:34:11.235Z,71.81
2022-08-26T00:35:09.860Z,71.92
2022-08-26T00:36:19.977Z,71.97
2022-08-26T00:37:15.651Z,71.97
2022-08-26T00:38:10.831Z,71.92
2022-08-26T00:39:09.828Z,71.88
2022-08-26T00:40:09.843Z,71.77
2022-08-26T00:41:09.800Z,71.94
2022-08-26T00:42:09.803Z,72.16
2022-08-26T00:43:10.054Z,72.04
2022-08-26T00:44:09.769Z,72.21
2022-08-26T00:45:11.551Z,72.37
2022-08-26T00:46:09.819Z,72.20
2022-08-26T00:47:09.736Z,72.22
2022-08-26T00:48:09.727Z,72.19
2022-08-26T00:49:11.868Z,72.22
2022-08-26T00:50:09.706Z,72.25
2022-08-26T00:51:09.696Z,72.50
2022-08-26T00:52:09.945Z,72.52
2022-08-26T00:53:09.673Z,72.52
2022-08-26T00:54:10.744Z,72.48
2022-08-26T00:55:09.642Z,72.49
2022-08-26T00:56:09.650Z,72.60
2022-08-26T00:57:16.534Z,72.44
2022-08-26T00:58:10.623Z,72.57
2022-08-26T00:59:09.601Z,72.50
2022-08-26T01:00:09.944Z,72.59
2022-08-26T01:01:09.647Z,72.57
2022-08-26T01:02:09.650Z,72.59
2022-08-26T01:03:11.493Z,72.56
2022-08-26T01:04:09.550Z,72.57
2022-08-26T01:05:09.533Z,72.65
2022-08-26T01:06:12.402Z,72.64
2022-08-26T01:07:09.517Z,72.58
2022-08-26T01:08:09.513Z,72.74
2022-08-26T01:09:09.500Z,72.86
2022-08-26T01:10:09.483Z,72.91
2022-08-26T01:11:09.463Z,73.00
2022-08-26T01:12:09.636Z,73.06
2022-08-26T01:13:09.566Z,73.04
2022-08-26T01:14:09.452Z,73.22
2022-08-26T01:15:09.432Z,73.25
2022-08-26T01:16:09.454Z,73.46
2022-08-26T01:17:09.405Z,73.38
2022-08-26T01:18:09.905Z,73.45
2022-08-26T01:19:09.385Z,73.37
2022-08-26T01:20:09.374Z,73.61
2022-08-26T01:21:09.366Z,73.68
2022-08-26T01:22:09.435Z,73.63
2022-08-26T01:23:09.445Z,73.66
2022-08-26T01:24:10.332Z,73.64
2022-08-26T01:25:09.318Z,73.78
2022-08-26T01:26:09.323Z,73.90
2022-08-26T01:27:10.308Z,74.11
2022-08-26T01:28:09.294Z,74.06
2022-08-26T01:29:09.277Z,74.03
2022-08-26T01:30:09.607Z,73.91
2022-08-26T01:31:09.332Z,73.82
2022-08-26T01:32:09.246Z,73.87
2022-08-26T01:33:09.399Z,73.82
2022-08-26T01:34:09.231Z,73.76
2022-08-26T01:35:09.214Z,73.78
2022-08-26T01:36:09.438Z,73.82
2022-08-26T01:37:09.195Z,73.90
2022-08-26T01:38:10.187Z,73.81
2022-08-26T01:39:09.181Z,73.83
2022-08-26T01:40:09.207Z,73.94
2022-08-26T01:41:14.146Z,73.86
2022-08-26T01:42:11.067Z,73.98
2022-08-26T01:43:09.194Z,73.95
2022-08-26T01:44:09.808Z,73.95
2022-08-26T01:45:09.114Z,73.97
2022-08-26T01:46:09.154Z,73.98
2022-08-26T01:47:09.086Z,73.92
2022-08-26T01:48:09.277Z,74.24
2022-08-26T01:49:09.056Z,74.26
2022-08-26T01:50:09.104Z,74.31
2022-08-26T01:51:09.045Z,74.18
2022-08-26T01:52:09.036Z,74.20
2022-08-26T01:53:10.574Z,74.11
2022-08-26T01:54:12.023Z,74.11
2022-08-26T01:55:09.001Z,74.02
2022-08-26T01:56:09.005Z,73.99
2022-08-26T01:57:08.977Z,73.97
2022-08-26T01:58:08.967Z,73.82
2022-08-26T01:59:09.383Z,73.79
2022-08-26T02:00:08.960Z,73.91
2022-08-26T02:01:09.630Z,73.83
2022-08-26T02:02:08.929Z,73.82
2022-08-26T02:03:08.974Z,73.65
2022-08-26T02:04:08.943Z,73.66
2022-08-26T02:05:09.058Z,73.60
2022-08-26T02:06:09.332Z,73.83
2022-08-26T02:07:16.394Z,73.71
2022-08-26T02:08:08.864Z,73.69
2022-08-26T02:09:08.844Z,73.73
2022-08-26T02:10:08.842Z,73.77
2022-08-26T02:11:08.996Z,73.91
2022-08-26T02:12:08.823Z,73.85
2022-08-26T02:13:08.944Z,73.82
2022-08-26T02:14:08.793Z,73.89
2022-08-26T02:15:08.796Z,73.90
2022-08-26T02:16:08.817Z,73.78
2022-08-26T02:17:08.995Z,73.90
2022-08-26T02:18:08.759Z,73.93
2022-08-26T02:19:09.761Z,74.04
2022-08-26T02:20:13.089Z,74.10
2022-08-26T02:21:09.714Z,74.25
2022-08-26T02:22:08.716Z,74.15
2022-08-26T02:23:09.137Z,74.44
2022-08-26T02:24:08.692Z,74.57
2022-08-26T02:25:08.683Z,74.53
2022-08-26T02:26:08.672Z,74.52
2022-08-26T02:27:08.657Z,74.59
2022-08-26T02:28:08.669Z,74.58
2022-08-26T02:29:08.851Z,74.45
2022-08-26T02:30:08.625Z,74.35
2022-08-26T02:31:08.639Z,74.61
2022-08-26T02:32:08.606Z,74.71
2022-08-26T02:33:08.860Z,74.59
2022-08-26T02:34:08.595Z,74.73
2022-08-26T02:35:08.887Z,74.62
2022-08-26T02:36:08.560Z,74.58
2022-08-26T02:37:08.546Z,74.61
2022-08-26T02:38:09.832Z,74.75
2022-08-26T02:39:08.517Z,74.80
2022-08-26T02:40:08.565Z,74.82
2022-08-26T02:41:08.684Z,74.79
2022-08-26T02:42:08.491Z,74.83
2022-08-26T02:43:08.771Z,74.93
2022-08-26T02:44:08.476Z,75.04
2022-08-26T02:45:08.461Z,75.07
2022-08-26T02:46:08.453Z,75.09
2022-08-26T02:47:08.688Z,75.03
2022-08-26T02:48:08.431Z,75.09
2022-08-26T02:49:08.415Z,75.16
2022-08-26T02:50:08.418Z,75.19
2022-08-26T02:51:08.388Z,75.29
2022-08-26T02:52:08.389Z,75.26
2022-08-26T02:53:08.701Z,75.29
2022-08-26T02:54:08.361Z,75.29
2022-08-26T02:55:08.347Z,75.30
2022-08-26T02:56:08.373Z,75.34
2022-08-26T02:57:08.329Z,75.32
2022-08-26T02:58:08.473Z,75.42
2022-08-26T02:59:08.318Z,75.28
2022-08-26T03:00:08.299Z,75.29
2022-08-26T03:01:08.352Z,75.23
2022-08-26T03:02:08.346Z,75.45
2022-08-26T03:03:08.468Z,75.34
2022-08-26T03:04:08.469Z,75.27
2022-08-26T03:05:08.277Z,75.42
2022-08-26T03:06:08.267Z,75.39
2022-08-26T03:07:08.218Z,75.34
2022-08-26T03:08:08.219Z,75.48
2022-08-26T03:09:08.198Z,75.40
2022-08-26T03:10:08.902Z,75.43
2022-08-26T03:11:08.183Z,75.38
2022-08-26T03:12:08.175Z,75.37
2022-08-26T03:13:08.331Z,75.46
2022-08-26T03:14:08.157Z,75.45
2022-08-26T03:15:17.359Z,75.44
2022-08-26T03:16:09.522Z,75.55
2022-08-26T03:17:08.124Z,75.58
2022-08-26T03:18:08.109Z,75.59
2022-08-26T03:19:08.094Z,75.63
2022-08-26T03:20:08.085Z,75.65
2022-08-26T03:21:08.079Z,75.50
2022-08-26T03:22:08.306Z,75.38
2022-08-26T03:23:08.243Z,75.31
2022-08-26T03:24:08.040Z,75.34
2022-08-26T03:25:08.027Z,75.37
2022-08-26T03:26:08.021Z,75.30
2022-08-26T03:27:08.012Z,75.36
2022-08-26T03:28:09.690Z,75.42
2022-08-26T03:29:07.981Z,75.25
2022-08-26T03:30:07.981Z,75.24
2022-08-26T03:31:08.068Z,75.14
2022-08-26T03:32:07.960Z,75.20
2022-08-26T03:33:08.144Z,75.24
2022-08-26T03:34:08.110Z,75.31
2022-08-26T03:35:07.911Z,75.19
2022-08-26T03:36:07.913Z,75.22
2022-08-26T03:37:07.901Z,75.16
2022-08-26T03:38:07.891Z,75.19
2022-08-26T03:39:07.884Z,75.22
2022-08-26T03:40:08.113Z,75.15
2022-08-26T03:41:07.850Z,75.29
2022-08-26T03:42:07.858Z,75.27
2022-08-26T03:43:09.710Z,75.37
2022-08-26T03:44:07.831Z,75.34
2022-08-26T03:45:08.004Z,75.40
2022-08-26T03:46:07.864Z,75.43
2022-08-26T03:47:07.791Z,75.44
2022-08-26T03:48:07.789Z,75.43
2022-08-26T03:49:07.776Z,75.45
2022-08-26T03:50:07.775Z,75.53
2022-08-26T03:51:07.911Z,75.54
2022-08-26T03:52:07.741Z,75.59
2022-08-26T03:53:07.875Z,75.64
2022-08-26T03:54:08.734Z,75.70
2022-08-26T03:55:07.702Z,75.70
2022-08-26T03:56:07.993Z,75.88
2022-08-26T03:57:07.712Z,75.78
2022-08-26T03:58:07.672Z,75.76
2022-08-26T03:59:07.800Z,75.79
2022-08-26T04:00:07.706Z,75.91
2022-08-26T04:01:07.645Z,76.10
2022-08-26T04:02:11.696Z,76.03
2022-08-26T04:03:07.893Z,76.12
2022-08-26T04:04:07.602Z,76.11
2022-08-26T04:05:07.595Z,76.04
2022-08-26T04:06:07.605Z,76.16
2022-08-26T04:07:07.580Z,76.20
2022-08-26T04:08:07.733Z,76.17
2022-08-26T04:09:07.561Z,76.23
2022-08-26T04:10:07.548Z,76.26
2022-08-26T04:11:07.537Z,76.33
2022-08-26T04:12:07.525Z,76.33
2022-08-26T04:13:07.678Z,76.40
2022-08-26T04:14:07.683Z,76.37
2022-08-26T04:15:07.495Z,76.38
2022-08-26T04:16:07.516Z,76.40
2022-08-26T04:17:07.468Z,76.48
2022-08-26T04:18:07.465Z,76.64
2022-08-26T04:19:07.450Z,76.57
2022-08-26T04:20:07.596Z,76.43
2022-08-26T04:21:08.022Z,76.31
2022-08-26T04:22:07.421Z,76.37
2022-08-26T04:23:07.569Z,76.42
2022-08-26T04:24:10.291Z,76.53
2022-08-26T04:25:07.385Z,76.55
2022-08-26T04:26:07.535Z,76.64
2022-08-26T04:27:07.372Z,76.60
2022-08-26T04:28:07.345Z,76.50
2022-08-26T04:29:07.339Z,76.73
2022-08-26T04:30:07.352Z,76.70
2022-08-26T04:31:07.404Z,76.63
2022-08-26T04:32:09.745Z,76.72
2022-08-26T04:33:12.819Z,76.85
2022-08-26T04:34:08.445Z,76.85
2022-08-26T04:35:07.302Z,76.74
2022-08-26T04:36:07.276Z,76.66
2022-08-26T04:37:07.244Z,76.63
2022-08-26T04:38:07.245Z,76.68
2022-08-26T04:39:07.744Z,76.75
2022-08-26T04:40:07.283Z,76.70
2022-08-26T04:41:07.215Z,76.65
2022-08-26T04:42:08.202Z,76.64
2022-08-26T04:43:07.309Z,76.74
2022-08-26T04:44:07.192Z,76.70
2022-08-26T04:45:10.313Z,76.72
2022-08-26T04:46:07.198Z,76.70
2022-08-26T04:47:07.146Z,76.76
2022-08-26T04:48:07.146Z,76.84
2022-08-26T04:49:07.126Z,76.93
2022-08-26T04:50:07.357Z,76.73
2022-08-26T04:51:07.311Z,76.88
2022-08-26T04:52:07.095Z,77.00
2022-08-26T04:53:07.310Z,77.04
2022-08-26T04:54:07.106Z,76.96
2022-08-26T04:55:08.518Z,77.05
2022-08-26T04:56:07.056Z,76.98
2022-08-26T04:57:07.437Z,77.29
2022-08-26T04:58:07.028Z,77.16
2022-08-26T04:59:07.247Z,77.18
2022-08-26T05:00:07.010Z,77.10
2022-08-26T05:01:06.996Z,77.14
2022-08-26T05:02:07.720Z,76.93
2022-08-26T05:03:07.376Z,76.89
2022-08-26T05:04:08.053Z,76.87
2022-08-26T05:05:06.958Z,76.76
2022-08-26T05:06:06.937Z,76.96
2022-08-26T05:07:06.933Z,76.98
2022-08-26T05:08:06.919Z,76.97
2022-08-26T05:09:07.168Z,76.91
2022-08-26T05:10:08.792Z,77.12
2022-08-26T05:11:06.898Z,77.12
2022-08-26T05:12:06.877Z,76.96
2022-08-26T05:13:06.952Z,77.05
2022-08-26T05:14:07.004Z,77.08
2022-08-26T05:15:06.853Z,77.12
2022-08-26T05:16:06.871Z,77.08
2022-08-26T05:17:06.829Z,77.21
2022-08-26T05:18:06.826Z,77.10
2022-08-26T05:19:06.969Z,77.01
2022-08-26T05:20:06.797Z,77.16
2022-08-26T05:21:06.796Z,77.12
2022-08-26T05:22:06.769Z,77.10
2022-08-26T05:23:06.922Z,77.18
2022-08-26T05:24:06.748Z,77.15
2022-08-26T05:25:06.920Z,77.24
2022-08-26T05:26:06.736Z,77.10
2022-08-26T05:27:11.409Z,77.20
2022-08-26T05:28:07.720Z,77.45
2022-08-26T05:29:06.732Z,77.32
2022-08-26T05:30:06.691Z,77.43
2022-08-26T05:31:06.892Z,77.15
2022-08-26T05:32:06.660Z,76.98
2022-08-26T05:33:06.728Z,76.92
2022-08-26T05:34:07.009Z,76.88
2022-08-26T05:35:08.754Z,76.84
2022-08-26T05:36:06.630Z,76.96
2022-08-26T05:37:06.830Z,76.87
2022-08-26T05:38:11.815Z,76.64
2022-08-26T05:39:07.601Z,76.85
2022-08-26T05:40:06.621Z,76.82
2022-08-26T05:41:06.571Z,76.57
2022-08-26T05:42:06.570Z,76.53
2022-08-26T05:43:06.791Z,76.36
2022-08-26T05:44:06.544Z,76.35
2022-08-26T05:45:06.530Z,76.35
2022-08-26T05:46:06.670Z,76.38
2022-08-26T05:47:06.506Z,76.41
2022-08-26T05:48:06.507Z,76.42
2022-08-26T05:49:06.660Z,76.57
2022-08-26T05:50:07.471Z,76.45
2022-08-26T05:51:06.460Z,76.38
2022-08-26T05:52:06.474Z,76.43
2022-08-26T05:53:06.457Z,76.37
2022-08-26T05:54:06.466Z,76.51
2022-08-26T05:55:06.710Z,76.31
2022-08-26T05:56:06.404Z,76.44
2022-08-26T05:57:06.401Z,76.32
2022-08-26T05:58:06.395Z,76.32
2022-08-26T05:59:06.375Z,76.35
2022-08-26T06:00:07.552Z,76.39
2022-08-26T06:01:06.373Z,76.46
2022-08-26T06:02:06.386Z,76.33
2022-08-26T06:03:06.436Z,76.40
2022-08-26T06:04:06.328Z,76.32
2022-08-26T06:05:06.317Z,76.57
2022-08-26T06:06:06.777Z,76.59
2022-08-26T06:07:06.310Z,76.38
2022-08-26T06:08:06.277Z,76.46
2022-08-26T06:09:06.271Z,76.15
2022-08-26T06:10:30.918Z,76.16
2022-08-26T06:11:07.481Z,76.03
2022-08-26T06:12:07.248Z,76.05
2022-08-26T06:13:11.521Z,76.27
2022-08-26T06:14:07.213Z,76.13
2022-08-26T06:15:06.202Z,75.96
2022-08-26T06:16:06.226Z,76.28
2022-08-26T06:17:06.363Z,76.46
2022-08-26T06:18:06.220Z,76.33
2022-08-26T06:19:10.230Z,76.15
2022-08-26T06:20:07.155Z,75.96
2022-08-26T06:21:06.137Z,76.06
2022-08-26T06:22:06.143Z,75.89
2022-08-26T06:23:06.370Z,76.00
2022-08-26T06:24:06.106Z,75.84
2022-08-26T06:25:06.092Z,75.96
2022-08-26T06:26:06.088Z,76.13
2022-08-26T06:27:06.072Z,76.38
2022-08-26T06:28:06.063Z,76.23
2022-08-26T06:29:06.250Z,76.23
2022-08-26T06:30:06.068Z,75.96
2022-08-26T06:31:06.272Z,75.96
2022-08-26T06:32:06.023Z,75.94
2022-08-26T06:33:06.017Z,76.15
2022-08-26T06:34:10.386Z,76.37
2022-08-26T06:35:06.154Z,76.07
2022-08-26T06:36:06.987Z,76.01
2022-08-26T06:37:06.491Z,76.16
2022-08-26T06:38:05.961Z,76.18
2022-08-26T06:39:05.971Z,76.19
2022-08-26T06:40:05.993Z,76.02
2022-08-26T06:41:06.088Z,75.96
2022-08-26T06:42:06.167Z,75.99
2022-08-26T06:43:05.903Z,75.93
2022-08-26T06:44:05.887Z,76.16
2022-08-26T06:45:05.898Z,76.00
2022-08-26T06:46:05.880Z,75.95
2022-08-26T06:47:06.026Z,75.91
2022-08-26T06:48:05.854Z,76.08
2022-08-26T06:49:05.837Z,76.23
2022-08-26T06:50:05.825Z,76.01
2022-08-26T06:51:05.818Z,76.03
2022-08-26T06:52:05.826Z,75.96
2022-08-26T06:53:06.038Z,76.17
2022-08-26T06:54:05.778Z,76.11
2022-08-26T06:55:05.774Z,75.98
2022-08-26T06:56:05.771Z,76.02
2022-08-26T06:57:05.754Z,76.15
2022-08-26T06:58:05.750Z,76.16
2022-08-26T06:59:07.616Z,76.06
2022-08-26T07:00:05.726Z,76.06
2022-08-26T07:01:11.361Z,76.04
2022-08-26T07:02:06.742Z,76.07
2022-08-26T07:03:05.753Z,76.05
2022-08-26T07:04:07.938Z,76.07
2022-08-26T07:05:06.836Z,75.98
2022-08-26T07:06:05.657Z,75.84
2022-08-26T07:07:05.647Z,75.85
2022-08-26T07:08:05.629Z,75.82
2022-08-26T07:09:05.618Z,75.71
2022-08-26T07:10:05.616Z,75.50
2022-08-26T07:11:05.655Z,75.24
2022-08-26T07:12:05.577Z,75.16
2022-08-26T07:13:05.968Z,75.09
2022-08-26T07:14:05.567Z,75.05
2022-08-26T07:15:05.564Z,75.07
2022-08-26T07:16:05.568Z,74.92
2022-08-26T07:17:05.860Z,74.86
2022-08-26T07:18:05.533Z,74.76
2022-08-26T07:19:10.890Z,74.80
2022-08-26T07:20:06.498Z,74.89
2022-08-26T07:21:05.500Z,74.87
2022-08-26T07:22:05.479Z,74.83
2022-08-26T07:23:05.663Z,74.71
2022-08-26T07:24:05.469Z,74.63
2022-08-26T07:25:05.449Z,74.76
2022-08-26T07:26:05.429Z,74.69
2022-08-26T07:27:05.811Z,74.63
2022-08-26T07:28:05.439Z,74.58
2022-08-26T07:29:05.398Z,74.74
2022-08-26T07:30:05.393Z,74.79
2022-08-26T07:31:05.398Z,74.66
2022-08-26T07:32:05.359Z,74.71
2022-08-26T07:33:05.387Z,74.59
2022-08-26T07:34:05.381Z,74.65
2022-08-26T07:35:05.336Z,74.61
2022-08-26T07:36:05.319Z,74.62
2022-08-26T07:37:05.316Z,74.65
2022-08-26T07:38:05.302Z,74.78
2022-08-26T07:39:05.300Z,74.74
2022-08-26T07:40:06.131Z,74.63
2022-08-26T07:41:05.269Z,74.65
2022-08-26T07:42:08.027Z,74.61
2022-08-26T07:43:05.313Z,74.42
2022-08-26T07:44:05.239Z,74.49
2022-08-26T07:45:05.245Z,74.54
2022-08-26T07:46:05.371Z,74.57
2022-08-26T07:47:10.212Z,74.45
2022-08-26T07:48:06.190Z,74.41
2022-08-26T07:49:05.229Z,74.27
2022-08-26T07:50:05.170Z,74.34
2022-08-26T07:51:05.170Z,74.41
2022-08-26T07:52:05.381Z,74.47
2022-08-26T07:53:05.257Z,74.40
2022-08-26T07:54:05.132Z,74.21
2022-08-26T07:55:05.119Z,74.50
2022-08-26T07:56:05.102Z,74.67
2022-08-26T07:57:05.261Z,74.32
2022-08-26T07:58:05.265Z,74.55
2022-08-26T07:59:13.962Z,74.74
2022-08-26T08:00:06.066Z,74.83
2022-08-26T08:01:05.123Z,75.08
2022-08-26T08:02:05.041Z,74.63
2022-08-26T08:03:05.088Z,74.68
2022-08-26T08:04:05.192Z,74.15
2022-08-26T08:05:05.074Z,74.14
2022-08-26T08:06:04.992Z,73.57
2022-08-26T08:07:04.994Z,73.25
2022-08-26T08:08:27.223Z,72.96
2022-08-26T08:09:06.174Z,72.49
2022-08-26T08:10:09.662Z,72.80
2022-08-26T08:11:05.942Z,72.62
2022-08-26T08:12:04.959Z,71.88
2022-08-26T08:13:04.961Z,71.39
2022-08-26T08:14:08.446Z,71.18
2022-08-26T08:15:05.150Z,71.04
2022-08-26T08:16:04.898Z,70.75
2022-08-26T08:17:05.039Z,70.72
2022-08-26T08:18:04.864Z,70.05
2022-08-26T08:19:04.892Z,69.99
2022-08-26T08:20:04.862Z,69.87
2022-08-26T08:21:21.200Z,69.47
2022-08-26T08:22:06.892Z,69.11
2022-08-26T08:23:05.817Z,68.85
2022-08-26T08:24:04.851Z,68.42
2022-08-26T08:25:08.137Z,68.01
2022-08-26T08:26:05.944Z,67.74
2022-08-26T08:27:04.772Z,67.46
2022-08-26T08:28:04.776Z,66.80
2022-08-26T08:29:04.762Z,66.96
2022-08-26T08:30:04.734Z,67.21
2022-08-26T08:31:04.759Z,67.53
2022-08-26T08:32:05.185Z,67.51
2022-08-26T08:33:04.770Z,67.62
2022-08-26T08:34:04.685Z,67.65
2022-08-26T08:35:10.816Z,67.51
2022-08-26T08:36:05.686Z,67.06
2022-08-26T08:37:08.718Z,67.01
2022-08-26T08:38:05.880Z,66.65
2022-08-26T08:39:04.657Z,66.63
2022-08-26T08:40:04.662Z,66.68
2022-08-26T08:41:04.623Z,66.51
2022-08-26T08:42:04.605Z,66.34
2022-08-26T08:43:04.611Z,66.25
2022-08-26T08:44:04.787Z,66.42
2022-08-26T08:45:04.583Z,66.42
2022-08-26T08:46:04.623Z,66.33
2022-08-26T08:47:04.559Z,65.88
2022-08-26T08:48:04.549Z,65.93
2022-08-26T08:49:04.525Z,65.96
2022-08-26T08:50:04.668Z,66.17
2022-08-26T08:51:04.523Z,65.99
2022-08-26T08:52:04.487Z,65.99
2022-08-26T08:53:05.808Z,65.75
2022-08-26T08:54:04.478Z,65.22
2022-08-26T08:55:04.470Z,65.26
2022-08-26T08:56:05.639Z,65.15
2022-08-26T08:57:04.460Z,65.33
2022-08-26T08:58:04.433Z,65.09
2022-08-26T08:59:04.418Z,65.15
2022-08-26T09:00:04.408Z,65.12
2022-08-26T09:01:04.478Z,64.82
2022-08-26T09:02:04.747Z,64.75
2022-08-26T09:03:04.386Z,64.80
2022-08-26T09:04:04.358Z,64.35
2022-08-26T09:05:04.375Z,63.87
2022-08-26T09:06:04.342Z,63.66
2022-08-26T09:07:04.338Z,63.69
2022-08-26T09:08:04.498Z,63.61
2022-08-26T09:09:04.317Z,63.51
2022-08-26T09:10:04.297Z,63.09
2022-08-26T09:11:04.298Z,62.64
2022-08-26T09:12:04.278Z,62.51
2022-08-26T09:13:04.268Z,62.42
2022-08-26T09:14:04.442Z,62.19
2022-08-26T09:15:04.297Z,62.46
2022-08-26T09:16:04.237Z,62.68
2022-08-26T09:17:04.298Z,63.02
2022-08-26T09:18:05.597Z,63.10
2022-08-26T09:19:04.198Z,63.18
2022-08-26T09:20:04.359Z,63.30
2022-08-26T09:21:04.180Z,63.26
2022-08-26T09:22:08.804Z,63.10
2022-08-26T09:23:05.250Z,62.97
2022-08-26T09:24:04.152Z,62.76
2022-08-26T09:25:04.135Z,62.34
2022-08-26T09:26:04.300Z,62.25
2022-08-26T09:27:04.114Z,61.91
2022-08-26T09:28:04.118Z,61.69
2022-08-26T09:29:04.093Z,61.88
2022-08-26T09:30:04.093Z,61.40
2022-08-26T09:31:08.013Z,61.10
2022-08-26T09:32:05.232Z,61.13
2022-08-26T09:33:04.051Z,61.07
2022-08-26T09:34:05.042Z,61.21
2022-08-26T09:35:04.030Z,61.21
2022-08-26T09:36:04.021Z,61.00
2022-08-26T09:37:04.685Z,60.96
2022-08-26T09:38:04.854Z,60.63
2022-08-26T09:39:04.413Z,60.47
2022-08-26T09:40:04.002Z,60.33
2022-08-26T09:41:05.057Z,60.28
2022-08-26T09:42:03.962Z,59.99
2022-08-26T09:43:03.945Z,60.18
2022-08-26T09:44:04.149Z,59.70
2022-08-26T09:45:03.958Z,59.03
2022-08-26T09:46:03.945Z,59.46
2022-08-26T09:47:03.931Z,59.76
2022-08-26T09:48:03.893Z,59.43
2022-08-26T09:49:03.881Z,59.09
2022-08-26T09:50:04.022Z,59.26
2022-08-26T09:51:03.851Z,59.02
2022-08-26T09:52:03.852Z,59.40
2022-08-26T09:53:03.864Z,59.68
2022-08-26T09:54:05.721Z,59.44
2022-08-26T09:55:03.813Z,59.16
2022-08-26T09:56:04.162Z,59.39
2022-08-26T09:57:03.794Z,59.56
2022-08-26T09:58:04.186Z,59.44
2022-08-26T09:59:06.461Z,59.16
2022-08-26T10:00:03.764Z,59.14
2022-08-26T10:01:03.845Z,59.41
2022-08-26T10:02:03.904Z,59.10
2022-08-26T10:03:04.732Z,58.68
2022-08-26T10:04:03.744Z,58.49
2022-08-26T10:05:09.208Z,58.44
2022-08-26T10:06:04.708Z,58.37
2022-08-26T10:07:03.686Z,58.12
2022-08-26T10:08:03.925Z,58.37
2022-08-26T10:09:08.299Z,58.13
2022-08-26T10:10:04.649Z,58.21
2022-08-26T10:11:03.645Z,58.32
2022-08-26T10:12:03.624Z,58.73
2022-08-26T10:13:03.641Z,59.04
2022-08-26T10:14:03.779Z,59.23
2022-08-26T10:15:03.602Z,59.61
2022-08-26T10:16:03.605Z,59.17
2022-08-26T10:17:03.578Z,58.37
2022-08-26T10:18:03.730Z,57.92
2022-08-26T10:19:03.558Z,57.84
2022-08-26T10:20:03.707Z,58.04
2022-08-26T10:21:03.610Z,58.10
2022-08-26T10:22:03.772Z,58.27
2022-08-26T10:23:03.521Z,58.40
2022-08-26T10:24:03.526Z,57.53
2022-08-26T10:25:03.834Z,57.25
2022-08-26T10:26:03.480Z,57.66
2022-08-26T10:27:03.472Z,58.04
2022-08-26T10:28:03.642Z,58.02
2022-08-26T10:29:03.457Z,58.19
2022-08-26T10:30:03.445Z,58.80
2022-08-26T10:31:03.427Z,58.86
2022-08-26T10:32:03.791Z,58.47
2022-08-26T10:33:03.439Z,58.14
2022-08-26T10:34:03.597Z,58.05
2022-08-26T10:35:03.386Z,57.38
2022-08-26T10:36:03.393Z,57.53
2022-08-26T10:37:13.975Z,57.36
2022-08-26T10:38:04.348Z,57.35
2022-08-26T10:39:03.347Z,56.06
2022-08-26T10:40:03.562Z,55.57
2022-08-26T10:41:03.347Z,55.20
2022-08-26T10:42:04.309Z,55.09
2022-08-26T10:43:07.180Z,55.05
2022-08-26T10:44:04.308Z,54.95
2022-08-26T10:45:03.279Z,54.74
2022-08-26T10:46:03.569Z,54.97
2022-08-26T10:47:03.271Z,55.20
2022-08-26T10:48:03.302Z,55.45
2022-08-26T10:49:03.388Z,55.52
2022-08-26T10:50:03.663Z,55.65
2022-08-26T10:51:03.224Z,55.71
2022-08-26T10:52:03.361Z,55.32
2022-08-26T10:53:04.193Z,55.05
2022-08-26T10:54:03.349Z,54.97
2022-08-26T10:55:03.412Z,54.46
2022-08-26T10:56:03.163Z,55.01
2022-08-26T10:57:03.157Z,54.65
2022-08-26T10:58:04.750Z,54.36
2022-08-26T10:59:03.122Z,54.46
2022-08-26T11:00:04.299Z,53.98
2022-08-26T11:01:03.389Z,53.79
2022-08-26T11:02:04.103Z,52.92
2022-08-26T11:03:03.155Z,52.81
2022-08-26T11:04:03.081Z,52.92
2022-08-26T11:05:03.077Z,52.41
2022-08-26T11:06:03.071Z,52.43
2022-08-26T11:07:03.550Z,52.37
2022-08-26T11:08:03.038Z,53.42
2022-08-26T11:09:03.019Z,52.86
2022-08-26T11:10:03.033Z,52.60
2022-08-26T11:11:04.003Z,52.94
2022-08-26T11:12:09.943Z,53.81
2022-08-26T11:13:04.427Z,54.24
2022-08-26T11:14:03.003Z,54.65
2022-08-26T11:15:02.992Z,55.08
2022-08-26T11:16:03.693Z,55.19
2022-08-26T11:17:02.967Z,55.88
2022-08-26T11:18:03.037Z,55.67
2022-08-26T11:19:03.125Z,54.43
2022-08-26T11:20:08.948Z,55.30
2022-08-26T11:21:04.018Z,55.31
2022-08-26T11:22:03.893Z,56.15
2022-08-26T11:23:02.884Z,54.72
2022-08-26T11:24:02.880Z,52.73
2022-08-26T11:25:03.042Z,52.23
2022-08-26T11:26:02.852Z,52.14
2022-08-26T11:27:02.854Z,51.87
2022-08-26T11:28:02.848Z,51.57
2022-08-26T11:29:03.142Z,51.45
2022-08-26T11:30:02.855Z,51.70
2022-08-26T11:31:03.269Z,51.65
2022-08-26T11:32:03.102Z,52.71
2022-08-26T11:33:02.815Z,51.76
2022-08-26T11:34:02.852Z,53.20
2022-08-26T11:35:02.745Z,53.82
2022-08-26T11:36:12.074Z,52.05
2022-08-26T11:37:04.168Z,51.21
2022-08-26T11:38:04.374Z,52.36
2022-08-26T11:39:02.803Z,51.62
2022-08-26T11:40:02.919Z,49.45
2022-08-26T11:41:03.301Z,50.01
2022-08-26T11:42:02.676Z,50.15
2022-08-26T11:43:02.941Z,50.41
2022-08-26T11:44:02.656Z,49.40
2022-08-26T11:45:05.676Z,49.76
2022-08-26T11:46:02.758Z,49.53
2022-08-26T11:47:02.719Z,50.62
2022-08-26T11:48:02.666Z,50.22
2022-08-26T11:49:02.866Z,50.09
2022-08-26T11:50:02.604Z,50.07
2022-08-26T11:51:02.578Z,49.84
2022-08-26T11:52:02.599Z,49.59
2022-08-26T11:53:02.663Z,49.99
2022-08-26T11:54:02.556Z,50.31
2022-08-26T11:55:02.712Z,50.11
2022-08-26T11:56:02.532Z,50.18
2022-08-26T11:57:07.787Z,50.09
2022-08-26T11:58:04.691Z,50.02
2022-08-26T11:59:02.497Z,49.77
2022-08-26T12:00:02.508Z,49.26
2022-08-26T12:01:03.676Z,49.03
2022-08-26T12:02:02.474Z,49.09
2022-08-26T12:03:02.539Z,50.24
2022-08-26T12:04:02.556Z,49.44
2022-08-26T12:05:02.423Z,49.83
2022-08-26T12:06:02.435Z,50.70
2022-08-26T12:07:02.596Z,52.27
2022-08-26T12:08:02.430Z,50.78
2022-08-26T12:09:02.382Z,50.01
2022-08-26T12:10:02.556Z,49.65
2022-08-26T12:11:02.394Z,49.73
2022-08-26T12:12:02.363Z,49.69
2022-08-26T12:13:02.524Z,50.01
2022-08-26T12:14:02.325Z,49.49
2022-08-26T12:15:02.314Z,49.25
2022-08-26T12:16:02.362Z,49.77
2022-08-26T12:17:02.285Z,48.94
2022-08-26T12:18:02.310Z,48.78
2022-08-26T12:19:02.450Z,48.25
2022-08-26T12:20:03.116Z,48.23
2022-08-26T12:21:02.245Z,48.01
2022-08-26T12:22:02.248Z,48.22
2022-08-26T12:23:02.502Z,48.01
2022-08-26T12:24:02.218Z,47.61
2022-08-26T12:25:02.209Z,47.28
2022-08-26T12:26:02.219Z,47.17
2022-08-26T12:27:02.207Z,47.29
2022-08-26T12:28:02.177Z,47.00
2022-08-26T12:29:02.363Z,47.74
2022-08-26T12:30:03.183Z,46.77
2022-08-26T12:31:02.139Z,46.92
2022-08-26T12:32:02.210Z,46.78
2022-08-26T12:33:02.151Z,46.91
2022-08-26T12:34:03.306Z,46.88
2022-08-26T12:35:02.132Z,46.87
2022-08-26T12:36:02.120Z,48.67
2022-08-26T12:37:02.103Z,47.64
2022-08-26T12:38:02.102Z,47.55
2022-08-26T12:39:02.092Z,47.63
2022-08-26T12:40:02.314Z,47.79
2022-08-26T12:41:02.065Z,48.08
2022-08-26T12:42:02.072Z,46.77
2022-08-26T12:43:02.044Z,49.77
2022-08-26T12:44:02.078Z,49.52
2022-08-26T12:45:02.027Z,49.38
2022-08-26T12:46:02.296Z,47.90
2022-08-26T12:47:01.998Z,48.36
2022-08-26T12:48:02.066Z,47.28
2022-08-26T12:49:01.989Z,47.44
2022-08-26T12:50:01.975Z,49.42
2022-08-26T12:51:01.966Z,47.20
2022-08-26T12:52:02.136Z,46.49